createdAt,value
2022-08-31T00:00:56.558Z,14.43
2022-08-31T00:03:25.685Z,13.63
2022-08-31T00:05:57.770Z,14.35
2022-08-31T00:08:25.688Z,12.70
2022-08-31T00:10:53.208Z,12.07
2022-08-31T00:13:20.949Z,12.68
2022-08-31T00:15:48.717Z,12.80
2022-08-31T00:18:18.155Z,13.18
2022-08-31T00:20:47.421Z,13.57
2022-08-31T00:23:17.561Z,16.05
2022-08-31T00:25:47.424Z,12.90
2022-08-31T00:28:16.829Z,12.32
2022-08-31T00:30:44.311Z,12.45
2022-08-31T00:33:12.134Z,12.43
2022-08-31T00:35:42.574Z,10.65
2022-08-31T00:38:11.949Z,12.95
2022-08-31T00:40:44.702Z,12.13
2022-08-31T00:43:13.680Z,12.50
2022-08-31T00:45:41.158Z,12.52
2022-08-31T00:48:08.627Z,12.65
2022-08-31T00:50:36.192Z,11.60
2022-08-31T00:53:05.926Z,12.60
2022-08-31T00:55:36.515Z,11.95
2022-08-31T00:58:07.578Z,12.30
2022-08-31T01:00:35.452Z,12.60
2022-08-31T01:03:05.359Z,12.75
2022-08-31T01:05:33.672Z,13.65
2022-08-31T01:08:02.379Z,12.13
2022-08-31T01:10:34.941Z,12.60
2022-08-31T01:13:02.695Z,12.23
2022-08-31T01:15:31.274Z,11.82
2022-08-31T01:18:02.074Z,12.32
2022-08-31T01:20:36.619Z,12.90
2022-08-31T01:23:11.661Z,15.10
2022-08-31T01:25:41.792Z,13.18
2022-08-31T01:28:09.815Z,12.52
2022-08-31T01:30:39.412Z,13.32
2022-08-31T01:33:07.662Z,14.27
2022-08-31T01:35:35.361Z,15.18
2022-08-31T01:38:03.296Z,16.98
2022-08-31T01:40:37.719Z,15.07
2022-08-31T01:43:05.373Z,15.93
2022-08-31T01:45:32.794Z,14.77
2022-08-31T01:48:01.697Z,14.63
2022-08-31T01:50:29.161Z,16.92
2022-08-31T01:52:56.693Z,14.15
2022-08-31T01:55:24.148Z,17.30
2022-08-31T01:57:53.173Z,14.57
2022-08-31T02:00:53.880Z,14.25
2022-08-31T02:03:21.431Z,13.50
2022-08-31T02:05:48.867Z,13.70
2022-08-31T02:08:16.322Z,15.50
2022-08-31T02:10:43.849Z,15.43
2022-08-31T02:13:12.962Z,18.58
2022-08-31T02:15:40.485Z,17.05
2022-08-31T02:18:08.819Z,14.77
2022-08-31T02:20:39.732Z,14.07
2022-08-31T02:23:07.181Z,13.95
2022-08-31T02:25:34.864Z,12.77
2022-08-31T02:28:04.157Z,12.73
2022-08-31T02:30:33.142Z,13.30
2022-08-31T02:33:00.694Z,15.98
2022-08-31T02:35:28.176Z,16.15
2022-08-31T02:37:56.610Z,15.35
2022-08-31T02:40:24.807Z,14.48
2022-08-31T02:42:54.223Z,14.65
2022-08-31T02:45:27.266Z,14.50
2022-08-31T02:48:03.660Z,14.57
2022-08-31T02:50:40.429Z,12.65
2022-08-31T02:53:08.196Z,13.93
2022-08-31T02:55:36.315Z,14.00
2022-08-31T02:58:04.548Z,13.93
2022-08-31T03:00:33.333Z,13.70
2022-08-31T03:03:02.315Z,13.23
2022-08-31T03:05:29.938Z,13.35
2022-08-31T03:07:57.380Z,12.80
2022-08-31T03:10:25.848Z,12.43
2022-08-31T03:12:54.210Z,13.48
2022-08-31T03:15:24.837Z,13.20
2022-08-31T03:17:52.621Z,12.90
2022-08-31T03:20:25.463Z,11.52
2022-08-31T03:22:53.954Z,13.25
2022-08-31T03:25:21.964Z,12.35
2022-08-31T03:27:49.891Z,12.52
2022-08-31T03:30:21.921Z,24.70
2022-08-31T03:33:15.852Z,23.98
2022-08-31T03:35:45.602Z,28.25
2022-08-31T03:38:15.265Z,21.67
2022-08-31T03:40:44.121Z,14.13
2022-08-31T03:43:12.405Z,13.77
2022-08-31T03:45:42.781Z,13.77
2022-08-31T03:48:12.757Z,13.50
2022-08-31T03:50:43.976Z,12.73
2022-08-31T03:53:22.643Z,11.88
2022-08-31T03:55:52.346Z,11.55
2022-08-31T03:58:19.805Z,11.80
2022-08-31T04:00:47.288Z,10.70
2022-08-31T04:03:36.252Z,11.38
2022-08-31T04:06:42.256Z,10.40
2022-08-31T04:09:29.537Z,11.15
2022-08-31T04:12:16.424Z,11.20
2022-08-31T04:15:04.228Z,10.25
2022-08-31T04:18:00.534Z,9.77
2022-08-31T04:20:48.167Z,10.32
2022-08-31T04:23:15.609Z,10.38
2022-08-31T04:26:02.163Z,9.73
2022-08-31T04:28:29.595Z,9.73
2022-08-31T04:30:57.005Z,9.95
2022-08-31T04:33:24.491Z,9.73
2022-08-31T04:35:52.332Z,9.75
2022-08-31T04:38:20.102Z,9.90
2022-08-31T04:40:47.940Z,9.35
2022-08-31T04:43:24.162Z,9.10
2022-08-31T04:45:51.971Z,9.27
2022-08-31T04:48:19.446Z,11.32
2022-08-31T04:50:47.567Z,9.30
2022-08-31T04:53:15.084Z,9.50
2022-08-31T04:55:43.644Z,9.82
2022-08-31T04:58:13.270Z,10.05
2022-08-31T05:00:44.030Z,9.88
2022-08-31T05:03:29.042Z,10.25
2022-08-31T05:05:56.569Z,9.27
2022-08-31T05:08:24.044Z,10.35
2022-08-31T05:10:51.799Z,9.93
2022-08-31T05:13:20.334Z,10.30
2022-08-31T05:15:50.692Z,9.52
2022-08-31T05:18:22.477Z,10.13
2022-08-31T05:20:56.251Z,10.30
2022-08-31T05:23:23.888Z,11.18
2022-08-31T05:25:51.827Z,11.20
2022-08-31T05:28:19.417Z,11.13
2022-08-31T05:30:47.025Z,11.45
2022-08-31T05:33:31.906Z,11.73
2022-08-31T05:36:01.490Z,12.15
2022-08-31T05:38:29.173Z,12.68
2022-08-31T05:40:57.126Z,11.20
2022-08-31T05:43:25.306Z,17.65
2022-08-31T05:45:52.924Z,17.10
2022-08-31T05:48:20.610Z,17.10
2022-08-31T05:50:52.505Z,20.15
2022-08-31T05:53:20.572Z,23.83
2022-08-31T05:55:47.995Z,17.70
2022-08-31T05:58:15.483Z,18.58
2022-08-31T06:00:42.984Z,16.15
2022-08-31T06:03:33.082Z,16.83
2022-08-31T06:06:05.626Z,15.93
2022-08-31T06:08:33.063Z,13.20
2022-08-31T06:11:00.588Z,14.50
2022-08-31T06:13:28.259Z,12.88
2022-08-31T06:15:56.105Z,13.20
2022-08-31T06:18:23.569Z,12.57
2022-08-31T06:21:01.336Z,13.63
2022-08-31T06:23:30.312Z,12.02
2022-08-31T06:26:06.826Z,13.00
2022-08-31T06:28:34.834Z,13.02
2022-08-31T06:31:02.845Z,16.33
2022-08-31T06:33:30.486Z,12.55
2022-08-31T06:36:14.396Z,13.38
2022-08-31T06:39:05.020Z,12.63
2022-08-31T06:41:47.589Z,14.52
2022-08-31T06:44:33.662Z,12.15
2022-08-31T06:47:15.011Z,12.52
2022-08-31T06:49:42.756Z,12.63
2022-08-31T06:52:10.181Z,11.45
2022-08-31T06:54:40.638Z,10.77
2022-08-31T06:57:26.838Z,11.30
2022-08-31T07:00:13.361Z,10.15
2022-08-31T07:03:06.640Z,10.68
2022-08-31T07:05:34.622Z,10.25
2022-08-31T07:08:02.384Z,12.63
2022-08-31T07:10:34.513Z,12.52
2022-08-31T07:13:02.009Z,10.18
2022-08-31T07:15:29.470Z,9.95
2022-08-31T07:17:57.155Z,9.77
2022-08-31T07:20:24.903Z,10.90
2022-08-31T07:22:53.000Z,9.25
2022-08-31T07:25:42.674Z,9.93
2022-08-31T07:28:10.336Z,9.40
2022-08-31T07:30:38.409Z,9.95
2022-08-31T07:33:05.943Z,9.20
2022-08-31T07:35:35.359Z,9.65
2022-08-31T07:38:11.653Z,10.70
2022-08-31T07:40:41.766Z,9.10
2022-08-31T07:43:13.049Z,8.80
2022-08-31T07:45:42.050Z,8.02
2022-08-31T07:48:14.774Z,9.13
2022-08-31T07:51:00.661Z,8.98
2022-08-31T07:53:45.117Z,8.60
2022-08-31T07:56:38.854Z,9.40
2022-08-31T07:59:13.062Z,9.23
2022-08-31T08:01:40.920Z,8.40
2022-08-31T08:04:09.699Z,8.18
2022-08-31T08:07:06.885Z,8.57
2022-08-31T08:09:58.748Z,8.35
2022-08-31T08:13:02.368Z,8.13
2022-08-31T08:15:52.170Z,9.30
2022-08-31T08:18:25.609Z,8.18
2022-08-31T08:20:57.685Z,8.18
2022-08-31T08:23:27.983Z,8.40
2022-08-31T08:26:21.674Z,8.93
2022-08-31T08:29:09.757Z,9.70
2022-08-31T08:31:44.019Z,8.50
2022-08-31T08:34:11.638Z,9.82
2022-08-31T08:36:39.213Z,8.98
2022-08-31T08:39:09.317Z,8.23
2022-08-31T08:41:40.687Z,7.88
2022-08-31T08:44:10.754Z,7.88
2022-08-31T08:46:52.253Z,8.27
2022-08-31T08:49:30.387Z,7.65
2022-08-31T08:52:03.868Z,8.75
2022-08-31T08:54:34.642Z,8.38
2022-08-31T08:57:09.747Z,8.23
2022-08-31T08:59:37.725Z,15.95
2022-08-31T09:02:07.176Z,8.93
2022-08-31T09:04:57.191Z,12.90
2022-08-31T09:08:07.530Z,11.55
2022-08-31T09:10:43.013Z,10.27
2022-08-31T09:13:22.596Z,10.43
2022-08-31T09:16:00.225Z,10.38
2022-08-31T09:18:46.040Z,9.90
2022-08-31T09:21:22.585Z,9.60
2022-08-31T09:23:59.635Z,10.20
2022-08-31T09:26:27.889Z,8.85
2022-08-31T09:29:05.674Z,9.55
2022-08-31T09:31:37.741Z,8.93
2022-08-31T09:34:10.437Z,9.23
2022-08-31T09:36:39.540Z,8.50
2022-08-31T09:39:21.874Z,8.50
2022-08-31T09:41:50.072Z,8.65
2022-08-31T09:44:26.440Z,8.32
2022-08-31T09:46:55.737Z,8.70
2022-08-31T09:49:27.863Z,8.18
2022-08-31T09:52:17.839Z,8.82
2022-08-31T09:54:55.793Z,7.88
2022-08-31T09:57:42.940Z,8.50
2022-08-31T10:00:12.884Z,9.02
2022-08-31T10:02:40.276Z,7.60
2022-08-31T10:05:30.730Z,8.43
2022-08-31T10:08:02.969Z,8.55
2022-08-31T10:10:34.927Z,7.32
2022-08-31T10:13:05.564Z,7.90
2022-08-31T10:15:39.772Z,7.55
2022-08-31T10:18:14.406Z,7.50
2022-08-31T10:20:48.456Z,7.85
2022-08-31T10:23:23.170Z,7.40
2022-08-31T10:25:54.267Z,8.13
2022-08-31T10:28:31.981Z,7.88
2022-08-31T10:31:04.161Z,7.80
2022-08-31T10:33:37.341Z,8.80
2022-08-31T10:36:06.928Z,9.10
2022-08-31T10:41:10.263Z,8.55
2022-08-31T10:43:45.739Z,9.02
2022-08-31T10:46:15.733Z,8.52
2022-08-31T10:48:43.582Z,8.02
2022-08-31T10:51:19.357Z,7.65
2022-08-31T10:54:07.006Z,7.88
2022-08-31T10:56:41.035Z,7.70
2022-08-31T10:59:21.788Z,8.35
2022-08-31T11:01:57.961Z,8.70
2022-08-31T11:04:52.250Z,8.90
2022-08-31T11:07:33.404Z,8.80
2022-08-31T11:10:16.774Z,8.73
2022-08-31T11:12:49.160Z,9.80
2022-08-31T11:15:48.463Z,8.65
2022-08-31T11:18:50.196Z,9.27
2022-08-31T11:21:46.617Z,8.40
2022-08-31T11:24:37.333Z,9.45
2022-08-31T11:27:09.762Z,9.15
2022-08-31T11:29:43.943Z,9.25
2022-08-31T11:32:19.977Z,9.98
2022-08-31T11:34:51.360Z,10.27
2022-08-31T11:37:49.522Z,9.88
2022-08-31T11:41:09.481Z,9.77
2022-08-31T11:43:50.706Z,9.85
2022-08-31T11:47:06.075Z,10.15
2022-08-31T11:49:42.640Z,10.68
2022-08-31T11:52:30.674Z,10.75
2022-08-31T11:55:17.954Z,9.55
2022-08-31T11:58:18.492Z,10.48
2022-08-31T12:00:54.925Z,10.05
2022-08-31T12:03:45.025Z,11.05
2022-08-31T12:06:50.983Z,10.32
2022-08-31T12:09:42.883Z,9.68
2022-08-31T12:12:14.753Z,10.18
2022-08-31T12:14:49.681Z,9.90
2022-08-31T12:17:23.804Z,10.50
2022-08-31T12:20:01.081Z,10.93
2022-08-31T12:23:04.427Z,9.65
2022-08-31T12:25:40.274Z,9.13
2022-08-31T12:28:15.997Z,8.68
2022-08-31T12:30:51.164Z,8.07
2022-08-31T12:33:21.350Z,8.32
2022-08-31T12:35:53.868Z,8.25
2022-08-31T12:38:23.156Z,8.00
2022-08-31T12:40:52.870Z,7.90
2022-08-31T12:43:24.270Z,8.32
2022-08-31T12:46:20.444Z,8.40
2022-08-31T12:49:02.110Z,8.25
2022-08-31T12:51:40.132Z,8.45
2022-08-31T12:54:53.023Z,8.27
2022-08-31T12:57:42.294Z,9.27
2022-08-31T13:00:13.569Z,9.18
2022-08-31T13:02:45.566Z,9.48
2022-08-31T13:05:20.148Z,10.48
2022-08-31T13:07:47.924Z,10.10
2022-08-31T13:10:24.208Z,11.23
2022-08-31T13:12:53.914Z,10.32
2022-08-31T13:17:50.876Z,10.80
2022-08-31T13:20:19.865Z,10.88
2022-08-31T13:22:56.994Z,11.40
2022-08-31T13:25:27.336Z,11.30
2022-08-31T13:27:54.744Z,13.02
2022-08-31T13:30:22.836Z,12.80
2022-08-31T13:32:54.467Z,12.90
2022-08-31T13:35:25.794Z,13.55
2022-08-31T13:37:57.698Z,12.20
2022-08-31T13:40:27.675Z,13.43
2022-08-31T13:42:57.409Z,13.63
2022-08-31T13:45:27.666Z,13.73
2022-08-31T13:47:59.189Z,14.88
2022-08-31T13:50:32.220Z,14.65
2022-08-31T13:53:25.981Z,15.45
2022-08-31T13:55:49.694Z,14.48
2022-08-31T13:58:27.157Z,14.77
2022-08-31T14:01:18.217Z,15.82
2022-08-31T14:03:53.382Z,15.10
2022-08-31T14:06:23.836Z,15.10
2022-08-31T14:08:54.943Z,16.88
2022-08-31T14:11:23.188Z,15.30
2022-08-31T14:13:51.599Z,15.13
2022-08-31T14:16:29.812Z,14.80
2022-08-31T14:19:00.079Z,14.52
2022-08-31T14:21:29.964Z,15.68
2022-08-31T14:23:58.475Z,14.27
2022-08-31T14:26:25.908Z,14.55
2022-08-31T14:28:55.281Z,13.95
2022-08-31T14:31:26.258Z,14.38
2022-08-31T14:34:05.925Z,14.18
2022-08-31T14:39:01.047Z,13.98
2022-08-31T14:41:31.715Z,16.02
2022-08-31T14:44:02.114Z,15.77
2022-08-31T14:46:29.637Z,15.18
2022-08-31T14:48:57.079Z,15.68
2022-08-31T14:51:26.230Z,16.48
2022-08-31T14:53:54.722Z,17.45
2022-08-31T14:56:22.373Z,17.52
2022-08-31T15:01:18.837Z,16.33
2022-08-31T15:03:46.333Z,17.30
2022-08-31T15:06:13.807Z,16.67
2022-08-31T15:08:42.708Z,16.65
2022-08-31T15:11:10.489Z,18.38
2022-08-31T15:13:37.920Z,18.02
2022-08-31T15:16:06.265Z,19.38
2022-08-31T15:18:35.725Z,21.50
2022-08-31T15:21:05.374Z,26.08
2022-08-31T15:23:33.549Z,22.38
2022-08-31T15:26:04.456Z,21.52
2022-08-31T15:28:31.986Z,19.73
2022-08-31T15:30:59.512Z,18.52
2022-08-31T15:33:26.974Z,18.52
2022-08-31T15:36:02.087Z,18.20
2022-08-31T15:38:29.522Z,19.58
2022-08-31T15:40:56.965Z,18.48
2022-08-31T15:43:25.913Z,17.98
2022-08-31T15:45:53.436Z,17.83
2022-08-31T15:48:20.965Z,17.90
2022-08-31T15:50:52.604Z,17.90
2022-08-31T15:53:21.055Z,18.30
2022-08-31T15:55:48.468Z,17.20
2022-08-31T15:58:16.186Z,16.92
2022-08-31T16:00:45.225Z,17.40
2022-08-31T16:03:12.658Z,17.20
2022-08-31T16:05:40.142Z,16.90
2022-08-31T16:08:09.217Z,17.88
2022-08-31T16:10:36.948Z,18.08
2022-08-31T16:13:04.463Z,20.08
2022-08-31T16:15:32.982Z,18.67
2022-08-31T16:18:02.013Z,17.83
2022-08-31T16:20:29.494Z,18.17
2022-08-31T16:22:57.221Z,18.20
2022-08-31T16:25:25.552Z,18.55
2022-08-31T16:27:56.921Z,18.20
2022-08-31T16:30:24.379Z,19.10
2022-08-31T16:32:52.432Z,18.45
2022-08-31T16:35:21.452Z,18.70
2022-08-31T16:37:48.876Z,18.55
2022-08-31T16:40:16.847Z,17.77
2022-08-31T16:42:44.376Z,19.17
2022-08-31T16:45:11.899Z,20.05
2022-08-31T16:47:39.353Z,19.60
2022-08-31T16:50:08.665Z,19.63
2022-08-31T16:52:37.528Z,18.50
2022-08-31T16:55:05.861Z,18.48
2022-08-31T16:57:33.317Z,17.55
2022-08-31T17:00:00.915Z,17.92
2022-08-31T17:02:28.460Z,18.25
2022-08-31T17:04:56.434Z,17.73
2022-08-31T17:07:24.867Z,18.30
2022-08-31T17:09:57.731Z,17.90
2022-08-31T17:12:25.192Z,18.90
2022-08-31T17:14:52.947Z,18.45
2022-08-31T17:17:22.436Z,18.58
2022-08-31T17:19:50.105Z,18.20
2022-08-31T17:22:24.580Z,17.85
2022-08-31T17:24:56.487Z,18.95
2022-08-31T17:27:25.123Z,17.65
2022-08-31T17:29:54.295Z,20.70
2022-08-31T17:32:23.375Z,23.35
2022-08-31T17:34:51.773Z,22.27
2022-08-31T17:37:21.376Z,19.50
2022-08-31T17:39:48.950Z,19.27
2022-08-31T17:42:17.865Z,19.05
2022-08-31T17:44:45.552Z,19.80
2022-08-31T17:47:13.049Z,18.60
2022-08-31T17:49:45.874Z,19.25
2022-08-31T17:52:14.298Z,18.45
2022-08-31T17:54:42.569Z,18.15
2022-08-31T17:57:13.303Z,17.58
2022-08-31T17:59:44.587Z,17.92
2022-08-31T18:02:14.361Z,18.05
2022-08-31T18:04:42.343Z,16.73
2022-08-31T18:07:10.939Z,17.27
2022-08-31T18:09:40.663Z,15.68
2022-08-31T18:12:09.097Z,16.73
2022-08-31T18:14:37.542Z,15.90
2022-08-31T18:17:09.692Z,16.67
2022-08-31T18:19:37.821Z,15.25
2022-08-31T18:22:05.984Z,15.70
2022-08-31T18:24:35.514Z,16.08
2022-08-31T18:29:31.553Z,16.35
2022-08-31T18:32:00.189Z,16.05
2022-08-31T18:34:29.103Z,16.70
2022-08-31T18:36:56.495Z,17.25
2022-08-31T18:39:47.804Z,17.63
2022-08-31T18:42:12.450Z,17.98
2022-08-31T18:44:39.867Z,19.20
2022-08-31T18:47:10.764Z,19.02
2022-08-31T18:49:41.805Z,20.45
2022-08-31T18:52:12.036Z,20.88
2022-08-31T18:54:39.435Z,20.73
2022-08-31T18:57:06.875Z,22.45
2022-08-31T18:59:34.271Z,30.95
2022-08-31T19:02:01.788Z,25.05
2022-08-31T19:04:29.285Z,22.10
2022-08-31T19:06:58.559Z,22.17
2022-08-31T19:09:25.980Z,21.60
2022-08-31T19:11:53.453Z,23.30
2022-08-31T19:14:22.828Z,20.23
2022-08-31T19:16:53.807Z,19.08
2022-08-31T19:19:29.627Z,19.85
2022-08-31T19:21:58.647Z,19.83
2022-08-31T19:24:26.065Z,19.75
2022-08-31T19:26:55.067Z,19.23
2022-08-31T19:29:24.473Z,20.23
2022-08-31T19:31:53.938Z,21.02
2022-08-31T19:34:25.932Z,21.38
2022-08-31T19:36:55.380Z,28.63
2022-08-31T19:39:27.652Z,29.20
2022-08-31T19:41:56.995Z,23.83
2022-08-31T19:44:24.815Z,22.27
2022-08-31T19:46:52.807Z,22.33
2022-08-31T19:49:20.541Z,22.90
2022-08-31T19:51:50.282Z,24.60
2022-08-31T19:54:19.000Z,24.17
2022-08-31T19:56:48.048Z,23.30
2022-08-31T19:59:17.892Z,23.52
2022-08-31T20:01:46.648Z,22.77
2022-08-31T20:04:16.825Z,22.45
2022-08-31T20:06:45.341Z,21.80
2022-08-31T20:09:13.679Z,22.20
2022-08-31T20:11:41.507Z,21.65
2022-08-31T20:14:10.381Z,21.90
2022-08-31T20:16:38.396Z,21.35
2022-08-31T20:19:05.817Z,21.83
2022-08-31T20:21:35.144Z,20.60
2022-08-31T20:24:05.446Z,21.85
2022-08-31T20:26:36.384Z,21.25
2022-08-31T20:29:07.749Z,20.60
2022-08-31T20:31:41.261Z,24.10
2022-08-31T20:34:09.800Z,23.00
2022-08-31T20:36:37.579Z,23.42
2022-08-31T20:39:08.116Z,23.27
2022-08-31T20:41:38.017Z,22.95
2022-08-31T20:44:09.788Z,23.98
2022-08-31T20:46:43.550Z,26.98
2022-08-31T20:49:11.014Z,26.48
2022-08-31T20:51:41.053Z,30.00
2022-08-31T20:54:08.783Z,27.00
2022-08-31T20:56:36.217Z,26.08
2022-08-31T20:59:03.627Z,27.92
2022-08-31T21:01:31.052Z,27.52
2022-08-31T21:03:59.918Z,26.38
2022-08-31T21:06:27.586Z,24.95
2022-08-31T21:08:56.789Z,28.88
2022-08-31T21:11:24.465Z,36.03
2022-08-31T21:13:51.915Z,30.02
2022-08-31T21:16:20.277Z,24.10
2022-08-31T21:18:48.403Z,22.48
2022-08-31T21:21:17.324Z,21.20
2022-08-31T21:23:45.629Z,21.63
2022-08-31T21:26:16.948Z,20.30
2022-08-31T21:28:44.403Z,19.88
2022-08-31T21:31:15.687Z,19.77
2022-08-31T21:33:46.769Z,19.48
2022-08-31T21:36:16.604Z,20.77
2022-08-31T21:38:44.888Z,19.05
2022-08-31T21:41:12.993Z,19.08
2022-08-31T21:43:40.615Z,20.20
2022-08-31T21:46:09.765Z,19.75
2022-08-31T21:48:39.520Z,19.73
2022-08-31T21:51:11.942Z,19.17
2022-08-31T21:53:42.437Z,19.17
2022-08-31T21:56:10.332Z,20.70
2022-08-31T21:58:38.152Z,21.40
2022-08-31T22:01:07.038Z,19.75
2022-08-31T22:03:35.017Z,19.40
2022-08-31T22:06:06.321Z,17.65
2022-08-31T22:08:34.391Z,18.60
2022-08-31T22:11:06.807Z,17.83
2022-08-31T22:13:34.643Z,17.90
2022-08-31T22:19:00.633Z,18.40
2022-08-31T22:21:21.852Z,18.95
2022-08-31T22:23:51.747Z,19.02
2022-08-31T22:26:21.367Z,19.13
2022-08-31T22:28:49.297Z,19.08
2022-08-31T22:31:18.658Z,19.92
2022-08-31T22:33:49.485Z,18.95
2022-08-31T22:36:31.189Z,19.58
2022-08-31T22:39:00.135Z,20.42
2022-08-31T22:41:29.253Z,20.25
2022-08-31T22:43:56.683Z,19.92
2022-08-31T22:46:24.456Z,21.00
2022-08-31T22:48:52.010Z,19.65
2022-08-31T22:51:20.884Z,19.85
2022-08-31T22:53:48.307Z,18.95
2022-08-31T22:56:18.785Z,18.52
2022-08-31T22:58:48.023Z,19.38
2022-08-31T23:01:19.589Z,20.40
2022-08-31T23:03:49.441Z,20.05
2022-08-31T23:06:17.038Z,19.42
2022-08-31T23:08:44.498Z,17.30
2022-08-31T23:11:11.931Z,17.20
2022-08-31T23:13:39.399Z,16.48
2022-08-31T23:16:08.509Z,17.55
2022-08-31T23:18:35.987Z,17.80
2022-08-31T23:21:03.514Z,17.38
2022-08-31T23:23:30.887Z,16.73
2022-08-31T23:25:58.276Z,15.25
2022-08-31T23:28:25.694Z,16.25
2022-08-31T23:30:53.146Z,18.45
2022-08-31T23:33:22.504Z,18.73
2022-08-31T23:35:49.897Z,16.73
2022-08-31T23:38:17.286Z,14.50
2022-08-31T23:40:44.721Z,14.07
2022-08-31T23:43:12.133Z,13.77
2022-08-31T23:45:39.561Z,14.07
2022-08-31T23:48:06.958Z,14.07
2022-08-31T23:50:35.919Z,12.57
2022-08-31T23:53:03.368Z,12.82
2022-08-31T23:55:30.773Z,12.10
2022-08-31T23:57:58.395Z,13.05
